Archival Weather

Snohomish County (Paine Fld)

Everett, Washington (KPAE)

Report from: Thursday, October 26, 2023 10:53 PM PDT
Current time: Friday, June 14, 2024 6:25 AM PDT

Current weather – Weather history – Daily summaries
Weather forecast

Temperature5.0°C (41.0°F)
Wind chill3.3°C (38.0°F)
Dew point2.8°C (37.0°F)
Winds 4 kts (2.1 m/s, 4.6 mph) Northwest (320°)
Visibility10 mi. (16.1 km)
Clouds Sky clear
Altimeter30.29 in.Hg (1026 mB)
Relative humidity86 %
Density altitude-1,527 ft. (-465 m)
Sea-level pressure102.6 kPa (1026 mB, 30.29 in.Hg)
Max temp last 6 hours10.0°C (50.0°F)
Min temp last 6 hours4.4°C (39.9°F)
Remarks Fully automated report
Automated weather observing station with precipitation discriminator
Pressure rising more quickly
Flight conditions Visual Meteorological Conditions
Raw dataKPAE 270553Z AUTO 32004KT 10SM CLR 05/03 A3029 RMK AO2 SLP259 T00500028 10100 20044 53004
An error has occurred. This application may no longer respond until reloaded. Reload 🗙